Terminal Aerodrome Forecast
Issued by NWS

Home | Current Version | Previous Version | Text Only | Print | Product List | Glossary On
Versions: 1 2 3 4 5 6 7 8 9 10 11 12 13 14 15 16 17 18
000
FTUS44 KCRP 281401 AAA
TAFALI
TAF AMD
KALI 281401Z 2814/2912 16013KT P6SM SCT025
      TEMPO 2814/2815 BKN009 BKN015
     FM281900 14016G25KT P6SM FEW040
     FM290100 14011KT P6SM FEW015
      TEMPO 2908/2912 5SM BR BKN015=

USA.gov is the U.S. government's official web portal to all federal, state and local government web resources and services.